sensor_id;sensor_type;location;lat;lon;timestamp;P1;durP1;ratioP1;P2;durP2;ratioP2
61433;SDS011;47300;46.192;9.000;2022-11-03T00:01:42;19.85;;;6.55;;
61433;SDS011;47300;46.192;9.000;2022-11-03T00:04:10;20.27;;;6.43;;
61433;SDS011;47300;46.192;9.000;2022-11-03T00:06:37;27.60;;;6.87;;
61433;SDS011;47300;46.192;9.000;2022-11-03T00:09:04;19.05;;;6.63;;
61433;SDS011;47300;46.192;9.000;2022-11-03T00:11:32;21.25;;;7.75;;
61433;SDS011;47300;46.192;9.000;2022-11-03T00:13:58;23.17;;;7.88;;
61433;SDS011;47300;46.192;9.000;2022-11-03T00:16:24;22.70;;;7.70;;
61433;SDS011;47300;46.192;9.000;2022-11-03T00:18:50;20.08;;;7.10;;
61433;SDS011;47300;46.192;9.000;2022-11-03T00:21:16;23.38;;;6.68;;
61433;SDS011;47300;46.192;9.000;2022-11-03T00:23:42;21.63;;;5.35;;
61433;SDS011;47300;46.192;9.000;2022-11-03T00:26:15;19.13;;;5.63;;
61433;SDS011;47300;46.192;9.000;2022-11-03T00:28:42;15.27;;;4.85;;
61433;SDS011;47300;46.192;9.000;2022-11-03T00:33:40;11.32;;;4.10;;
61433;SDS011;47300;46.192;9.000;2022-11-03T00:36:06;17.98;;;6.07;;
61433;SDS011;47300;46.192;9.000;2022-11-03T00:38:34;18.37;;;7.23;;
61433;SDS011;47300;46.192;9.000;2022-11-03T00:41:00;20.88;;;7.60;;
61433;SDS011;47300;46.192;9.000;2022-11-03T00:43:28;20.88;;;6.45;;
61433;SDS011;47300;46.192;9.000;2022-11-03T00:45:54;15.37;;;6.97;;
61433;SDS011;47300;46.192;9.000;2022-11-03T00:48:20;29.48;;;8.43;;
61433;SDS011;47300;46.192;9.000;2022-11-03T00:53:29;25.60;;;8.70;;
61433;SDS011;47300;46.192;9.000;2022-11-03T00:55:55;26.08;;;8.68;;
61433;SDS011;47300;46.192;9.000;2022-11-03T00:58:20;18.65;;;8.30;;
61433;SDS011;47300;46.192;9.000;2022-11-03T01:00:46;24.63;;;8.27;;
61433;SDS011;47300;46.192;9.000;2022-11-03T01:03:11;19.83;;;6.25;;
61433;SDS011;47300;46.192;9.000;2022-11-03T01:05:40;16.08;;;5.43;;
61433;SDS011;47300;46.192;9.000;2022-11-03T01:08:30;17.92;;;5.72;;
61433;SDS011;47300;46.192;9.000;2022-11-03T01:11:06;13.70;;;5.20;;
61433;SDS011;47300;46.192;9.000;2022-11-03T01:13:57;16.42;;;6.13;;
61433;SDS011;47300;46.192;9.000;2022-11-03T01:16:23;19.35;;;7.03;;
61433;SDS011;47300;46.192;9.000;2022-11-03T01:18:49;18.10;;;7.32;;
61433;SDS011;47300;46.192;9.000;2022-11-03T01:21:15;17.30;;;5.93;;
61433;SDS011;47300;46.192;9.000;2022-11-03T01:23:41;13.15;;;5.85;;
61433;SDS011;47300;46.192;9.000;2022-11-03T01:26:07;22.17;;;5.78;;
61433;SDS011;47300;46.192;9.000;2022-11-03T01:28:33;21.45;;;5.47;;
61433;SDS011;47300;46.192;9.000;2022-11-03T01:31:04;17.83;;;5.53;;
61433;SDS011;47300;46.192;9.000;2022-11-03T01:33:30;14.77;;;4.60;;
61433;SDS011;47300;46.192;9.000;2022-11-03T01:35:55;15.30;;;4.13;;
61433;SDS011;47300;46.192;9.000;2022-11-03T01:38:21;15.20;;;4.78;;
61433;SDS011;47300;46.192;9.000;2022-11-03T01:40:46;16.30;;;5.10;;
61433;SDS011;47300;46.192;9.000;2022-11-03T01:43:18;12.68;;;4.28;;
61433;SDS011;47300;46.192;9.000;2022-11-03T01:45:46;21.27;;;4.38;;
61433;SDS011;47300;46.192;9.000;2022-11-03T01:48:15;14.43;;;3.70;;
61433;SDS011;47300;46.192;9.000;2022-11-03T01:50:42;15.50;;;4.45;;
61433;SDS011;47300;46.192;9.000;2022-11-03T01:53:11;19.00;;;4.40;;
61433;SDS011;47300;46.192;9.000;2022-11-03T01:55:39;11.93;;;4.30;;
61433;SDS011;47300;46.192;9.000;2022-11-03T01:58:06;15.35;;;3.85;;
61433;SDS011;47300;46.192;9.000;2022-11-03T02:00:41;26.50;;;6.30;;
61433;SDS011;47300;46.192;9.000;2022-11-03T02:03:08;14.05;;;5.97;;
61433;SDS011;47300;46.192;9.000;2022-11-03T02:05:34;17.45;;;5.43;;
61433;SDS011;47300;46.192;9.000;2022-11-03T02:08:13;16.83;;;4.82;;
61433;SDS011;47300;46.192;9.000;2022-11-03T02:10:42;17.73;;;6.10;;
61433;SDS011;47300;46.192;9.000;2022-11-03T02:13:14;20.10;;;6.82;;
61433;SDS011;47300;46.192;9.000;2022-11-03T02:15:43;22.30;;;7.18;;
61433;SDS011;47300;46.192;9.000;2022-11-03T02:18:12;24.10;;;6.68;;
61433;SDS011;47300;46.192;9.000;2022-11-03T02:20:39;29.95;;;10.20;;
61433;SDS011;47300;46.192;9.000;2022-11-03T02:25:56;22.60;;;5.85;;
61433;SDS011;47300;46.192;9.000;2022-11-03T02:28:23;20.65;;;7.10;;
61433;SDS011;47300;46.192;9.000;2022-11-03T02:33:53;21.48;;;6.93;;
61433;SDS011;47300;46.192;9.000;2022-11-03T02:36:37;16.13;;;7.13;;
61433;SDS011;47300;46.192;9.000;2022-11-03T02:41:36;22.05;;;7.70;;
61433;SDS011;47300;46.192;9.000;2022-11-03T02:44:03;22.40;;;5.82;;
61433;SDS011;47300;46.192;9.000;2022-11-03T02:46:32;19.30;;;6.53;;
61433;SDS011;47300;46.192;9.000;2022-11-03T02:48:58;21.92;;;7.57;;
61433;SDS011;47300;46.192;9.000;2022-11-03T02:51:24;12.98;;;4.65;;
61433;SDS011;47300;46.192;9.000;2022-11-03T02:53:57;21.60;;;5.22;;
61433;SDS011;47300;46.192;9.000;2022-11-03T02:56:30;17.95;;;5.45;;
61433;SDS011;47300;46.192;9.000;2022-11-03T03:04:16;18.70;;;6.18;;
61433;SDS011;47300;46.192;9.000;2022-11-03T03:06:54;16.65;;;5.88;;
61433;SDS011;47300;46.192;9.000;2022-11-03T03:09:27;19.40;;;6.43;;
61433;SDS011;47300;46.192;9.000;2022-11-03T03:11:56;23.48;;;7.18;;
61433;SDS011;47300;46.192;9.000;2022-11-03T03:14:25;20.08;;;7.63;;
61433;SDS011;47300;46.192;9.000;2022-11-03T03:21:57;17.02;;;6.35;;
61433;SDS011;47300;46.192;9.000;2022-11-03T03:24:40;22.27;;;6.43;;
61433;SDS011;47300;46.192;9.000;2022-11-03T03:27:19;16.73;;;7.25;;
61433;SDS011;47300;46.192;9.000;2022-11-03T03:29:49;19.05;;;7.75;;
61433;SDS011;47300;46.192;9.000;2022-11-03T03:32:21;19.55;;;6.45;;
61433;SDS011;47300;46.192;9.000;2022-11-03T03:34:49;20.20;;;6.33;;
61433;SDS011;47300;46.192;9.000;2022-11-03T03:37:17;19.17;;;8.05;;
61433;SDS011;47300;46.192;9.000;2022-11-03T03:39:45;19.80;;;6.65;;
61433;SDS011;47300;46.192;9.000;2022-11-03T03:42:14;20.95;;;6.22;;
61433;SDS011;47300;46.192;9.000;2022-11-03T03:44:41;22.83;;;6.43;;
61433;SDS011;47300;46.192;9.000;2022-11-03T03:47:10;16.23;;;6.78;;
61433;SDS011;47300;46.192;9.000;2022-11-03T03:49:41;20.10;;;6.53;;
61433;SDS011;47300;46.192;9.000;2022-11-03T03:52:07;16.77;;;5.38;;
61433;SDS011;47300;46.192;9.000;2022-11-03T03:54:33;17.60;;;6.72;;
61433;SDS011;47300;46.192;9.000;2022-11-03T03:57:02;21.17;;;7.03;;
61433;SDS011;47300;46.192;9.000;2022-11-03T03:59:29;22.20;;;5.50;;
61433;SDS011;47300;46.192;9.000;2022-11-03T04:01:55;21.98;;;5.72;;
61433;SDS011;47300;46.192;9.000;2022-11-03T04:04:20;17.52;;;5.15;;
61433;SDS011;47300;46.192;9.000;2022-11-03T04:06:46;16.33;;;5.70;;
61433;SDS011;47300;46.192;9.000;2022-11-03T04:09:12;23.90;;;8.13;;
61433;SDS011;47300;46.192;9.000;2022-11-03T04:11:37;21.05;;;5.38;;
61433;SDS011;47300;46.192;9.000;2022-11-03T04:14:21;17.67;;;5.47;;
61433;SDS011;47300;46.192;9.000;2022-11-03T04:17:09;19.17;;;5.78;;
61433;SDS011;47300;46.192;9.000;2022-11-03T04:20:01;15.18;;;5.10;;
61433;SDS011;47300;46.192;9.000;2022-11-03T04:22:45;19.85;;;6.93;;
61433;SDS011;47300;46.192;9.000;2022-11-03T04:25:10;22.52;;;7.40;;
61433;SDS011;47300;46.192;9.000;2022-11-03T04:27:35;21.00;;;7.65;;
61433;SDS011;47300;46.192;9.000;2022-11-03T04:32:34;19.05;;;7.10;;
61433;SDS011;47300;46.192;9.000;2022-11-03T04:35:00;16.85;;;6.40;;
61433;SDS011;47300;46.192;9.000;2022-11-03T04:37:33;19.35;;;7.40;;
61433;SDS011;47300;46.192;9.000;2022-11-03T04:39:59;21.48;;;7.47;;
61433;SDS011;47300;46.192;9.000;2022-11-03T04:42:25;24.58;;;6.35;;
61433;SDS011;47300;46.192;9.000;2022-11-03T04:44:55;20.80;;;6.90;;
61433;SDS011;47300;46.192;9.000;2022-11-03T04:47:26;20.88;;;6.53;;
61433;SDS011;47300;46.192;9.000;2022-11-03T04:49:52;17.15;;;7.57;;
61433;SDS011;47300;46.192;9.000;2022-11-03T04:52:21;23.80;;;6.75;;
61433;SDS011;47300;46.192;9.000;2022-11-03T04:54:47;17.27;;;5.90;;
61433;SDS011;47300;46.192;9.000;2022-11-03T04:57:15;19.88;;;6.47;;
61433;SDS011;47300;46.192;9.000;2022-11-03T04:59:42;21.05;;;6.35;;
61433;SDS011;47300;46.192;9.000;2022-11-03T05:02:12;20.15;;;7.45;;
61433;SDS011;47300;46.192;9.000;2022-11-03T05:04:39;19.30;;;8.05;;
61433;SDS011;47300;46.192;9.000;2022-11-03T05:07:12;16.73;;;6.93;;
61433;SDS011;47300;46.192;9.000;2022-11-03T05:09:50;15.05;;;6.72;;
61433;SDS011;47300;46.192;9.000;2022-11-03T05:12:16;18.65;;;7.00;;
61433;SDS011;47300;46.192;9.000;2022-11-03T05:14:42;24.00;;;6.90;;
61433;SDS011;47300;46.192;9.000;2022-11-03T05:17:16;21.50;;;6.78;;
61433;SDS011;47300;46.192;9.000;2022-11-03T05:19:42;19.25;;;7.35;;
61433;SDS011;47300;46.192;9.000;2022-11-03T05:22:18;22.42;;;6.70;;
61433;SDS011;47300;46.192;9.000;2022-11-03T05:24:46;21.40;;;6.30;;
61433;SDS011;47300;46.192;9.000;2022-11-03T05:27:17;14.68;;;5.93;;
61433;SDS011;47300;46.192;9.000;2022-11-03T05:29:45;18.30;;;6.72;;
61433;SDS011;47300;46.192;9.000;2022-11-03T05:32:13;21.85;;;7.68;;
61433;SDS011;47300;46.192;9.000;2022-11-03T05:34:42;19.95;;;11.07;;
61433;SDS011;47300;46.192;9.000;2022-11-03T05:40:15;21.50;;;7.03;;
61433;SDS011;47300;46.192;9.000;2022-11-03T05:42:46;16.73;;;7.15;;
61433;SDS011;47300;46.192;9.000;2022-11-03T05:45:25;21.23;;;7.55;;
61433;SDS011;47300;46.192;9.000;2022-11-03T05:47:55;22.52;;;8.40;;
61433;SDS011;47300;46.192;9.000;2022-11-03T05:50:22;22.92;;;7.75;;
61433;SDS011;47300;46.192;9.000;2022-11-03T05:52:53;19.20;;;7.25;;
61433;SDS011;47300;46.192;9.000;2022-11-03T05:55:40;15.77;;;6.13;;
61433;SDS011;47300;46.192;9.000;2022-11-03T05:58:21;21.23;;;7.50;;
61433;SDS011;47300;46.192;9.000;2022-11-03T06:00:49;19.02;;;8.60;;
61433;SDS011;47300;46.192;9.000;2022-11-03T06:03:15;15.82;;;7.13;;
61433;SDS011;47300;46.192;9.000;2022-11-03T06:05:49;16.67;;;7.40;;
61433;SDS011;47300;46.192;9.000;2022-11-03T06:08:17;21.92;;;7.90;;
61433;SDS011;47300;46.192;9.000;2022-11-03T06:10:48;17.42;;;7.63;;
61433;SDS011;47300;46.192;9.000;2022-11-03T06:15:45;20.58;;;7.47;;
61433;SDS011;47300;46.192;9.000;2022-11-03T06:18:15;27.33;;;7.82;;
61433;SDS011;47300;46.192;9.000;2022-11-03T06:20:55;25.38;;;7.90;;
61433;SDS011;47300;46.192;9.000;2022-11-03T06:23:23;18.90;;;6.85;;
61433;SDS011;47300;46.192;9.000;2022-11-03T06:25:52;22.95;;;8.85;;
61433;SDS011;47300;46.192;9.000;2022-11-03T06:28:21;19.38;;;7.18;;
61433;SDS011;47300;46.192;9.000;2022-11-03T06:30:50;22.83;;;7.38;;
61433;SDS011;47300;46.192;9.000;2022-11-03T06:33:29;17.48;;;6.78;;
61433;SDS011;47300;46.192;9.000;2022-11-03T06:36:00;19.13;;;7.88;;
61433;SDS011;47300;46.192;9.000;2022-11-03T06:38:30;17.98;;;7.18;;
61433;SDS011;47300;46.192;9.000;2022-11-03T06:40:59;19.35;;;6.88;;
61433;SDS011;47300;46.192;9.000;2022-11-03T06:43:25;24.70;;;8.05;;
61433;SDS011;47300;46.192;9.000;2022-11-03T06:45:56;21.52;;;7.38;;
61433;SDS011;47300;46.192;9.000;2022-11-03T06:48:23;24.85;;;8.20;;
61433;SDS011;47300;46.192;9.000;2022-11-03T06:50:51;18.42;;;8.38;;
61433;SDS011;47300;46.192;9.000;2022-11-03T06:53:22;19.63;;;8.07;;
61433;SDS011;47300;46.192;9.000;2022-11-03T06:55:49;22.25;;;8.30;;
61433;SDS011;47300;46.192;9.000;2022-11-03T07:00:56;20.52;;;7.63;;
61433;SDS011;47300;46.192;9.000;2022-11-03T07:03:24;23.08;;;7.55;;
61433;SDS011;47300;46.192;9.000;2022-11-03T07:05:55;25.27;;;8.23;;
61433;SDS011;47300;46.192;9.000;2022-11-03T07:08:24;22.17;;;7.93;;
61433;SDS011;47300;46.192;9.000;2022-11-03T07:11:03;18.15;;;7.70;;
61433;SDS011;47300;46.192;9.000;2022-11-03T07:13:35;23.27;;;8.00;;
61433;SDS011;47300;46.192;9.000;2022-11-03T07:16:00;21.85;;;8.25;;
61433;SDS011;47300;46.192;9.000;2022-11-03T07:18:28;28.08;;;7.78;;
61433;SDS011;47300;46.192;9.000;2022-11-03T07:20:58;23.33;;;7.95;;
61433;SDS011;47300;46.192;9.000;2022-11-03T07:23:29;22.88;;;8.07;;
61433;SDS011;47300;46.192;9.000;2022-11-03T07:25:56;28.63;;;8.10;;
61433;SDS011;47300;46.192;9.000;2022-11-03T07:28:25;22.83;;;9.40;;
61433;SDS011;47300;46.192;9.000;2022-11-03T07:30:57;26.67;;;8.80;;
61433;SDS011;47300;46.192;9.000;2022-11-03T07:33:25;18.80;;;7.50;;
61433;SDS011;47300;46.192;9.000;2022-11-03T07:35:53;17.30;;;7.82;;
61433;SDS011;47300;46.192;9.000;2022-11-03T07:38:21;20.67;;;8.15;;
61433;SDS011;47300;46.192;9.000;2022-11-03T07:40:49;17.60;;;7.85;;
61433;SDS011;47300;46.192;9.000;2022-11-03T07:43:38;26.08;;;8.30;;
61433;SDS011;47300;46.192;9.000;2022-11-03T07:46:03;24.65;;;8.63;;
61433;SDS011;47300;46.192;9.000;2022-11-03T07:51:23;29.88;;;8.65;;
61433;SDS011;47300;46.192;9.000;2022-11-03T07:54:12;20.60;;;8.32;;
61433;SDS011;47300;46.192;9.000;2022-11-03T07:56:52;25.45;;;8.55;;
61433;SDS011;47300;46.192;9.000;2022-11-03T07:59:21;25.48;;;9.93;;
61433;SDS011;47300;46.192;9.000;2022-11-03T08:01:54;26.67;;;9.20;;
61433;SDS011;47300;46.192;9.000;2022-11-03T08:04:24;22.38;;;9.00;;
61433;SDS011;47300;46.192;9.000;2022-11-03T08:06:51;22.50;;;9.38;;
61433;SDS011;47300;46.192;9.000;2022-11-03T08:09:17;19.00;;;8.88;;
61433;SDS011;47300;46.192;9.000;2022-11-03T08:11:43;18.80;;;8.05;;
61433;SDS011;47300;46.192;9.000;2022-11-03T08:14:08;24.95;;;8.77;;
61433;SDS011;47300;46.192;9.000;2022-11-03T08:16:34;24.35;;;7.90;;
61433;SDS011;47300;46.192;9.000;2022-11-03T08:19:00;17.08;;;6.93;;
61433;SDS011;47300;46.192;9.000;2022-11-03T08:21:25;26.10;;;8.45;;
61433;SDS011;47300;46.192;9.000;2022-11-03T08:23:51;23.58;;;9.02;;
61433;SDS011;47300;46.192;9.000;2022-11-03T08:26:16;27.08;;;9.43;;
61433;SDS011;47300;46.192;9.000;2022-11-03T08:28:41;27.73;;;9.73;;
61433;SDS011;47300;46.192;9.000;2022-11-03T08:31:07;23.33;;;8.93;;
61433;SDS011;47300;46.192;9.000;2022-11-03T08:33:33;21.40;;;9.10;;
61433;SDS011;47300;46.192;9.000;2022-11-03T08:35:59;29.65;;;9.32;;
61433;SDS011;47300;46.192;9.000;2022-11-03T08:38:25;23.48;;;9.13;;
61433;SDS011;47300;46.192;9.000;2022-11-03T08:40:51;19.52;;;8.27;;
61433;SDS011;47300;46.192;9.000;2022-11-03T08:43:16;23.55;;;8.32;;
61433;SDS011;47300;46.192;9.000;2022-11-03T08:45:42;23.63;;;8.73;;
61433;SDS011;47300;46.192;9.000;2022-11-03T08:48:07;25.73;;;8.52;;
61433;SDS011;47300;46.192;9.000;2022-11-03T08:50:33;24.65;;;9.10;;
61433;SDS011;47300;46.192;9.000;2022-11-03T08:52:58;25.27;;;9.15;;
61433;SDS011;47300;46.192;9.000;2022-11-03T08:55:23;22.08;;;8.18;;
61433;SDS011;47300;46.192;9.000;2022-11-03T08:57:49;19.33;;;7.47;;
61433;SDS011;47300;46.192;9.000;2022-11-03T09:00:15;20.02;;;7.93;;
61433;SDS011;47300;46.192;9.000;2022-11-03T09:02:41;19.63;;;7.57;;
61433;SDS011;47300;46.192;9.000;2022-11-03T09:05:07;31.75;;;9.25;;
61433;SDS011;47300;46.192;9.000;2022-11-03T09:07:33;20.92;;;7.95;;
61433;SDS011;47300;46.192;9.000;2022-11-03T09:09:59;22.50;;;10.20;;
61433;SDS011;47300;46.192;9.000;2022-11-03T09:12:24;19.98;;;9.07;;
61433;SDS011;47300;46.192;9.000;2022-11-03T09:14:49;27.42;;;9.23;;
61433;SDS011;47300;46.192;9.000;2022-11-03T09:17:14;27.75;;;10.63;;
61433;SDS011;47300;46.192;9.000;2022-11-03T09:19:40;28.50;;;9.90;;
61433;SDS011;47300;46.192;9.000;2022-11-03T09:22:05;27.45;;;9.73;;
61433;SDS011;47300;46.192;9.000;2022-11-03T09:24:30;31.15;;;11.23;;
61433;SDS011;47300;46.192;9.000;2022-11-03T09:26:56;23.70;;;10.15;;
61433;SDS011;47300;46.192;9.000;2022-11-03T09:29:21;26.08;;;9.60;;
61433;SDS011;47300;46.192;9.000;2022-11-03T09:31:47;18.85;;;9.15;;
61433;SDS011;47300;46.192;9.000;2022-11-03T09:34:12;25.38;;;9.38;;
61433;SDS011;47300;46.192;9.000;2022-11-03T09:36:38;25.67;;;9.35;;
61433;SDS011;47300;46.192;9.000;2022-11-03T09:39:04;18.27;;;8.73;;
61433;SDS011;47300;46.192;9.000;2022-11-03T09:41:29;31.80;;;11.73;;
61433;SDS011;47300;46.192;9.000;2022-11-03T09:43:56;60.45;;;23.15;;
61433;SDS011;47300;46.192;9.000;2022-11-03T09:46:22;50.67;;;17.25;;
61433;SDS011;47300;46.192;9.000;2022-11-03T09:48:49;28.75;;;10.88;;
61433;SDS011;47300;46.192;9.000;2022-11-03T09:51:18;24.38;;;8.70;;
61433;SDS011;47300;46.192;9.000;2022-11-03T09:53:45;21.08;;;8.55;;
61433;SDS011;47300;46.192;9.000;2022-11-03T09:56:11;18.92;;;7.97;;
61433;SDS011;47300;46.192;9.000;2022-11-03T09:58:36;20.05;;;8.63;;
61433;SDS011;47300;46.192;9.000;2022-11-03T10:01:02;29.35;;;8.30;;
61433;SDS011;47300;46.192;9.000;2022-11-03T10:03:28;26.75;;;9.85;;
61433;SDS011;47300;46.192;9.000;2022-11-03T10:05:54;42.97;;;17.30;;
61433;SDS011;47300;46.192;9.000;2022-11-03T10:08:21;25.38;;;10.52;;
61433;SDS011;47300;46.192;9.000;2022-11-03T10:10:49;23.52;;;9.10;;
61433;SDS011;47300;46.192;9.000;2022-11-03T10:13:20;29.60;;;13.70;;
61433;SDS011;47300;46.192;9.000;2022-11-03T10:16:04;23.92;;;10.25;;
61433;SDS011;47300;46.192;9.000;2022-11-03T10:18:32;39.45;;;20.00;;
61433;SDS011;47300;46.192;9.000;2022-11-03T10:21:04;25.95;;;14.75;;
61433;SDS011;47300;46.192;9.000;2022-11-03T10:23:58;21.98;;;10.20;;
61433;SDS011;47300;46.192;9.000;2022-11-03T10:26:23;24.05;;;11.85;;
61433;SDS011;47300;46.192;9.000;2022-11-03T10:31:32;34.13;;;13.80;;
61433;SDS011;47300;46.192;9.000;2022-11-03T10:34:02;31.10;;;11.02;;
61433;SDS011;47300;46.192;9.000;2022-11-03T10:36:29;32.60;;;11.98;;
61433;SDS011;47300;46.192;9.000;2022-11-03T10:38:56;33.60;;;15.25;;
61433;SDS011;47300;46.192;9.000;2022-11-03T10:41:25;50.90;;;25.50;;
61433;SDS011;47300;46.192;9.000;2022-11-03T10:46:28;43.75;;;19.63;;
61433;SDS011;47300;46.192;9.000;2022-11-03T10:49:02;39.30;;;21.95;;
61433;SDS011;47300;46.192;9.000;2022-11-03T10:51:30;60.63;;;24.25;;
61433;SDS011;47300;46.192;9.000;2022-11-03T10:53:57;33.08;;;13.65;;
61433;SDS011;47300;46.192;9.000;2022-11-03T10:56:22;40.08;;;13.70;;
61433;SDS011;47300;46.192;9.000;2022-11-03T10:58:48;24.90;;;12.48;;
61433;SDS011;47300;46.192;9.000;2022-11-03T11:01:13;30.05;;;11.90;;
61433;SDS011;47300;46.192;9.000;2022-11-03T11:03:40;30.67;;;15.07;;
61433;SDS011;47300;46.192;9.000;2022-11-03T11:06:17;33.30;;;14.88;;
61433;SDS011;47300;46.192;9.000;2022-11-03T11:08:43;29.58;;;12.10;;
61433;SDS011;47300;46.192;9.000;2022-11-03T11:11:08;27.13;;;13.15;;
61433;SDS011;47300;46.192;9.000;2022-11-03T11:13:37;35.35;;;12.25;;
61433;SDS011;47300;46.192;9.000;2022-11-03T11:16:03;27.05;;;11.77;;
61433;SDS011;47300;46.192;9.000;2022-11-03T11:20:54;24.15;;;11.68;;
61433;SDS011;47300;46.192;9.000;2022-11-03T11:33:46;49.08;;;24.33;;
61433;SDS011;47300;46.192;9.000;2022-11-03T11:36:19;35.08;;;16.60;;
61433;SDS011;47300;46.192;9.000;2022-11-03T11:41:13;38.40;;;13.35;;
61433;SDS011;47300;46.192;9.000;2022-11-03T11:43:38;40.15;;;13.25;;
61433;SDS011;47300;46.192;9.000;2022-11-03T11:51:21;43.17;;;15.57;;
61433;SDS011;47300;46.192;9.000;2022-11-03T11:53:48;44.83;;;22.48;;
61433;SDS011;47300;46.192;9.000;2022-11-03T11:56:15;36.72;;;15.68;;
61433;SDS011;47300;46.192;9.000;2022-11-03T11:58:48;33.63;;;13.10;;
61433;SDS011;47300;46.192;9.000;2022-11-03T12:01:20;23.08;;;10.90;;
61433;SDS011;47300;46.192;9.000;2022-11-03T12:04:00;26.38;;;10.52;;
61433;SDS011;47300;46.192;9.000;2022-11-03T12:06:47;24.30;;;9.85;;
61433;SDS011;47300;46.192;9.000;2022-11-03T12:16:52;39.50;;;15.18;;
61433;SDS011;47300;46.192;9.000;2022-11-03T12:24:37;37.67;;;16.55;;
61433;SDS011;47300;46.192;9.000;2022-11-03T12:29:52;31.30;;;12.67;;
61433;SDS011;47300;46.192;9.000;2022-11-03T12:32:21;36.97;;;15.05;;
61433;SDS011;47300;46.192;9.000;2022-11-03T12:34:47;37.58;;;15.30;;
61433;SDS011;47300;46.192;9.000;2022-11-03T12:37:13;30.83;;;14.27;;
61433;SDS011;47300;46.192;9.000;2022-11-03T12:39:38;29.52;;;13.00;;
61433;SDS011;47300;46.192;9.000;2022-11-03T12:42:04;32.55;;;17.35;;
61433;SDS011;47300;46.192;9.000;2022-11-03T12:44:30;24.33;;;11.40;;
61433;SDS011;47300;46.192;9.000;2022-11-03T12:46:56;21.15;;;9.77;;
61433;SDS011;47300;46.192;9.000;2022-11-03T12:49:22;17.65;;;9.43;;
61433;SDS011;47300;46.192;9.000;2022-11-03T12:51:47;21.60;;;8.57;;
61433;SDS011;47300;46.192;9.000;2022-11-03T12:54:12;26.75;;;9.00;;
61433;SDS011;47300;46.192;9.000;2022-11-03T12:56:38;15.38;;;7.63;;
61433;SDS011;47300;46.192;9.000;2022-11-03T12:59:03;20.55;;;8.90;;
61433;SDS011;47300;46.192;9.000;2022-11-03T13:01:28;15.68;;;7.45;;
61433;SDS011;47300;46.192;9.000;2022-11-03T13:03:54;19.48;;;6.72;;
61433;SDS011;47300;46.192;9.000;2022-11-03T13:06:19;18.85;;;6.20;;
61433;SDS011;47300;46.192;9.000;2022-11-03T13:08:45;17.70;;;5.88;;
61433;SDS011;47300;46.192;9.000;2022-11-03T13:11:11;18.08;;;6.30;;
61433;SDS011;47300;46.192;9.000;2022-11-03T13:13:55;16.52;;;6.30;;
61433;SDS011;47300;46.192;9.000;2022-11-03T13:16:21;20.15;;;10.05;;
61433;SDS011;47300;46.192;9.000;2022-11-03T13:18:47;23.13;;;10.95;;
61433;SDS011;47300;46.192;9.000;2022-11-03T13:21:12;27.80;;;9.60;;
61433;SDS011;47300;46.192;9.000;2022-11-03T13:23:38;32.78;;;14.05;;
61433;SDS011;47300;46.192;9.000;2022-11-03T13:26:04;31.08;;;12.88;;
61433;SDS011;47300;46.192;9.000;2022-11-03T13:28:29;31.77;;;11.85;;
61433;SDS011;47300;46.192;9.000;2022-11-03T13:30:55;31.05;;;11.95;;
61433;SDS011;47300;46.192;9.000;2022-11-03T13:33:20;31.25;;;12.95;;
61433;SDS011;47300;46.192;9.000;2022-11-03T13:35:46;27.20;;;11.35;;
61433;SDS011;47300;46.192;9.000;2022-11-03T13:38:11;23.90;;;11.35;;
61433;SDS011;47300;46.192;9.000;2022-11-03T13:40:36;38.80;;;18.45;;
61433;SDS011;47300;46.192;9.000;2022-11-03T13:43:01;28.98;;;12.77;;
61433;SDS011;47300;46.192;9.000;2022-11-03T13:45:28;26.48;;;11.10;;
61433;SDS011;47300;46.192;9.000;2022-11-03T13:47:53;20.58;;;10.85;;
61433;SDS011;47300;46.192;9.000;2022-11-03T13:50:18;25.13;;;13.35;;
61433;SDS011;47300;46.192;9.000;2022-11-03T13:52:44;33.63;;;11.23;;
61433;SDS011;47300;46.192;9.000;2022-11-03T13:55:12;32.55;;;18.75;;
61433;SDS011;47300;46.192;9.000;2022-11-03T13:57:37;32.65;;;15.73;;
61433;SDS011;47300;46.192;9.000;2022-11-03T14:00:03;21.40;;;10.82;;
61433;SDS011;47300;46.192;9.000;2022-11-03T14:02:29;32.35;;;12.30;;
61433;SDS011;47300;46.192;9.000;2022-11-03T14:04:54;27.08;;;14.60;;
61433;SDS011;47300;46.192;9.000;2022-11-03T14:07:20;26.98;;;11.88;;
61433;SDS011;47300;46.192;9.000;2022-11-03T14:09:45;26.20;;;10.18;;
61433;SDS011;47300;46.192;9.000;2022-11-03T14:12:10;29.88;;;11.20;;
61433;SDS011;47300;46.192;9.000;2022-11-03T14:14:54;22.58;;;10.20;;
61433;SDS011;47300;46.192;9.000;2022-11-03T14:17:20;25.27;;;9.45;;
61433;SDS011;47300;46.192;9.000;2022-11-03T14:19:46;26.40;;;10.68;;
61433;SDS011;47300;46.192;9.000;2022-11-03T14:22:12;20.23;;;10.02;;
61433;SDS011;47300;46.192;9.000;2022-11-03T14:24:37;23.33;;;9.82;;
61433;SDS011;47300;46.192;9.000;2022-11-03T14:27:02;20.75;;;12.23;;
61433;SDS011;47300;46.192;9.000;2022-11-03T14:29:28;39.05;;;14.20;;
61433;SDS011;47300;46.192;9.000;2022-11-03T14:31:53;29.98;;;12.52;;
61433;SDS011;47300;46.192;9.000;2022-11-03T14:34:19;30.00;;;16.98;;
61433;SDS011;47300;46.192;9.000;2022-11-03T14:36:44;23.80;;;11.18;;
61433;SDS011;47300;46.192;9.000;2022-11-03T14:39:09;21.33;;;11.80;;
61433;SDS011;47300;46.192;9.000;2022-11-03T14:41:35;23.80;;;14.27;;
61433;SDS011;47300;46.192;9.000;2022-11-03T14:44:19;30.52;;;13.82;;
61433;SDS011;47300;46.192;9.000;2022-11-03T14:46:44;21.13;;;12.85;;
61433;SDS011;47300;46.192;9.000;2022-11-03T14:49:09;25.70;;;12.27;;
61433;SDS011;47300;46.192;9.000;2022-11-03T14:51:34;27.23;;;12.90;;
61433;SDS011;47300;46.192;9.000;2022-11-03T14:54:00;28.50;;;15.63;;
61433;SDS011;47300;46.192;9.000;2022-11-03T14:56:25;87.30;;;65.50;;
61433;SDS011;47300;46.192;9.000;2022-11-03T14:58:50;84.30;;;50.60;;
61433;SDS011;47300;46.192;9.000;2022-11-03T15:01:16;32.70;;;18.20;;
61433;SDS011;47300;46.192;9.000;2022-11-03T15:03:42;34.47;;;20.60;;
61433;SDS011;47300;46.192;9.000;2022-11-03T15:06:08;35.35;;;19.30;;
61433;SDS011;47300;46.192;9.000;2022-11-03T15:08:34;28.67;;;15.52;;
61433;SDS011;47300;46.192;9.000;2022-11-03T15:11:01;36.08;;;17.27;;
61433;SDS011;47300;46.192;9.000;2022-11-03T15:13:27;32.53;;;16.02;;
61433;SDS011;47300;46.192;9.000;2022-11-03T15:15:52;41.72;;;16.50;;
61433;SDS011;47300;46.192;9.000;2022-11-03T15:18:18;32.13;;;16.35;;
61433;SDS011;47300;46.192;9.000;2022-11-03T15:20:44;27.58;;;14.10;;
61433;SDS011;47300;46.192;9.000;2022-11-03T15:23:10;29.83;;;13.98;;
61433;SDS011;47300;46.192;9.000;2022-11-03T15:25:35;33.45;;;15.52;;
61433;SDS011;47300;46.192;9.000;2022-11-03T15:28:00;35.17;;;16.15;;
61433;SDS011;47300;46.192;9.000;2022-11-03T15:30:25;37.13;;;16.73;;
61433;SDS011;47300;46.192;9.000;2022-11-03T15:32:51;33.00;;;17.33;;
61433;SDS011;47300;46.192;9.000;2022-11-03T15:35:17;31.80;;;16.77;;
61433;SDS011;47300;46.192;9.000;2022-11-03T15:37:42;27.30;;;16.23;;
61433;SDS011;47300;46.192;9.000;2022-11-03T15:40:09;38.63;;;20.60;;
61433;SDS011;47300;46.192;9.000;2022-11-03T15:42:37;37.03;;;18.42;;
61433;SDS011;47300;46.192;9.000;2022-11-03T15:45:03;32.83;;;18.33;;
61433;SDS011;47300;46.192;9.000;2022-11-03T15:47:29;31.85;;;15.52;;
61433;SDS011;47300;46.192;9.000;2022-11-03T15:49:54;33.10;;;15.60;;
61433;SDS011;47300;46.192;9.000;2022-11-03T15:52:19;31.10;;;17.40;;
61433;SDS011;47300;46.192;9.000;2022-11-03T15:54:44;30.35;;;16.98;;
61433;SDS011;47300;46.192;9.000;2022-11-03T15:57:10;32.38;;;15.57;;